• Join FlightAware (Why Join?)
  • Login
  • US Flag 
12:10AM EDT


 

Airport Tracker/Info


-or-


 

Live Flight TrackerFlight Track Log ✈ AWE1940 ✈ 24-May-2013 ✈ KIAH - KCLT

Flight Track Log - Related Links

Times and Time Zones

All times are in EDT time to prevent confusion due to time zone crossing. See the AWE1940 flight status page for this flight to view local times or setup timezone preferences in your user account.

Time Position Orientation Groundspeed Altitude Reporting Facility
EDT Latitude Longitude Course Direction KTS MPH feet Rate Location/Type
06:40PM 29.9572 -95.3392 90° East 171 197 1,000  Level Houston Center
06:40PM 29.9494 -95.3258 124° Southeast 173 199 1,600 2,160 Climbing Houston Center
06:41PM 29.9347 -95.2553 104° East 229 264 3,900 1,500 Climbing Houston Center
06:42PM 29.9378 -95.2250 83° East 238 274 4,000 720 Climbing Houston Center
06:42PM 29.9439 -95.1744 82° East 269 310 4,700 1,620 Climbing Houston Center
06:43PM 29.9834 -94.9418 90° East  Level FlightAware Approximate
06:43PM 29.9472 -95.1419 83° East 259 298 5,700  Level Houston Center
06:43PM 29.9508 -95.0892 85° East 269 310 7,400 2,700 Climbing Houston Center
06:44PM 29.9834 -94.8113 90° East  Level FlightAware Approximate
06:44PM 29.9500 -95.0542 92° East 271 312 8,500  Level Houston Center
06:45PM 29.9833 -94.6808 90° East  Level FlightAware Approximate
06:45PM 29.9406 -94.9433 96° East 289 333 11,100  Level Houston Center
06:46PM 29.9347 -94.8303 93° East 351 404 12,600 1,860 Climbing Houston Center
06:47PM 29.9289 -94.7106 93° East 370 426 15,000 2,040 Climbing Houston Center
06:48PM 29.9464 -94.5858 81° East 396 456 16,900 1,620 Climbing Houston Center
06:49PM 29.9631 -94.4603 81° East 408 470 18,400 1,740 Climbing Houston Center
06:50PM 29.9856 -94.2964 81° East 429 494 20,500 1,620 Climbing Houston Center
06:51PM 30.0047 -94.1547 81° East 444 511 21,800 1,500 Climbing Houston Center
06:52PM 30.0244 -94.0081 81° East 460 529 23,600 1,920 Climbing Houston Center
06:53PM 30.0442 -93.8669 81° East 451 519 25,800 1,980 Climbing Houston Center
06:54PM 30.0625 -93.7261 81° East 448 516 27,700 1,380 Climbing Houston Center
06:55PM 30.0794 -93.5906 82° East 436 502 28,700 1,080 Climbing Houston Center
06:56PM 30.1000 -93.4225 82° East 445 512 30,000 1,080 Climbing Houston Center
06:57PM 30.1189 -93.2806 81° East 452 520 31,000 1,020 Climbing Houston Center
06:58PM 30.1364 -93.1389 82° East 451 519 32,200 960 Climbing Houston Center
06:59PM 30.1614 -92.9994 78° East 448 516 33,000 360 Climbing Houston Center
07:00PM 30.1958 -92.8319 77° East 449 517 33,000  Level Houston Center
07:01PM 30.2231 -92.6869 78° East 460 529 33,000  Level Houston Center
07:02PM 30.2514 -92.5453 77° East 456 525 33,000  Level Houston Center
07:03PM 30.2789 -92.4014 77° East 458 527 33,000  Level Houston Center
07:04PM 30.3042 -92.2567 79° East 461 531 33,000  Level Houston Center
07:06PM 30.3375 -92.0850 77° East 459 528 33,000  Level Houston Center
07:07PM 30.3656 -91.9394 77° East 462 532 33,000  Level Houston Center
07:08PM 30.3925 -91.7950 78° East 463 533 33,000  Level Houston Center
07:09PM 30.4217 -91.6397 78° East 464 534 33,000  Level Houston Center
07:10PM 30.4483 -91.4964 78° East 458 527 33,000  Level Houston Center
07:11PM 30.4756 -91.3500 78° East 464 534 33,000  Level Houston Center
07:12PM 30.5378 -91.2256 60° Northeast 454 522 33,000  Level Houston Center
07:13PM 30.6256 -91.1161 47° Northeast 458 527 33,000  Level Houston Center
07:14PM 30.7111 -91.0092 47° Northeast 455 524 33,000  Level Houston Center
07:15PM 30.8122 -90.8792 48° Northeast 449 517 33,000  Level Houston Center
07:16PM 30.8975 -90.7714 47° Northeast 451 519 33,000  Level Houston Center
07:17PM 30.9831 -90.6631 47° Northeast 452 520 33,000  Level Houston Center
07:18PM 31.0669 -90.5556 48° Northeast 449 517 33,000  Level Houston Center
07:19PM 31.1519 -90.4467 48° Northeast 451 519 33,000  Level Houston Center
07:20PM 31.2378 -90.3383 47° Northeast 452 520 33,000  Level Houston Center
07:21PM 31.3236 -90.2286 48° Northeast 454 522 33,000  Level Houston Center
07:22PM 31.4244 -90.0972 48° Northeast 453 521 33,000  Level Houston Center
07:23PM 31.5092 -89.9892 47° Northeast 451 519 33,000  Level Houston Center
07:24PM 31.5917 -89.8775 49° Northeast 451 519 33,000  Level Houston Center
07:25PM 31.6739 -89.7664 49° Northeast 450 518 33,000  Level Houston Center
07:26PM 31.7561 -89.6561 49° Northeast 448 516 33,000  Level Houston Center
07:27PM 31.8506 -89.5289 49° Northeast 447 514 33,000  Level Houston Center
07:28PM 31.9272 -89.4247 49° Northeast 440 506 33,000  Level Memphis Center
07:29PM 32.0058 -89.3161 50° Northeast 440 506 33,000  Level Memphis Center
07:30PM 32.0842 -89.2000 51° Northeast 440 506 33,000  Level Memphis Center
07:31PM 32.1369 -89.0619 66° East 440 506 33,000  Level Memphis Center
07:32PM 32.1833 -88.9239 68° East 440 506 33,000  Level Memphis Center
07:33PM 32.2319 -88.7831 68° East 450 518 33,000  Level Memphis Center
07:36PM 32.3622 -88.4083 68° East 451 519 33,000  Level Atlanta Center
07:37PM 32.4111 -88.2656 68° East 456 525 33,000  Level Atlanta Center
07:38PM 32.4575 -88.1250 69° East 462 532 33,000  Level Atlanta Center
07:39PM 32.5058 -87.9869 67° East 462 532 33,000  Level Atlanta Center
07:40PM 32.5542 -87.8386 69° East 462 532 33,000  Level Atlanta Center
07:41PM 32.5983 -87.6978 70° East 462 532 33,000 -480 Level Atlanta Center
07:42PM 32.6461 -87.5592 68° East 462 532 32,100 -900 Descending Atlanta Center
07:43PM 32.6917 -87.4178 69° East 456 525 31,200 -600 Descending Atlanta Center
07:44PM 32.7375 -87.2739 69° East 456 525 31,000 -120 Descending Atlanta Center
07:45PM 32.7850 -87.1297 69° East 462 532 31,000  Level Atlanta Center
07:46PM 32.8322 -86.9881 68° East 462 532 31,000  Level Atlanta Center
07:47PM 32.8794 -86.8461 68° East 462 532 31,000  Level Atlanta Center
07:48PM 32.9264 -86.7017 69° East 462 532 31,000  Level Atlanta Center
07:49PM 32.9711 -86.5619 69° East 462 532 31,000  Level Atlanta Center
07:50PM 33.0156 -86.4194 70° East 462 532 31,000  Level Atlanta Center
07:51PM 33.0600 -86.2794 69° East 456 525 31,000  Level Atlanta Center
07:52PM 33.1042 -86.1442 69° East 451 519 31,000  Level Atlanta Center
07:53PM 33.1483 -85.9989 70° East 446 513 31,000  Level Atlanta Center
07:54PM 33.1922 -85.8583 70° East 446 513 31,000  Level Atlanta Center
07:55PM 33.2381 -85.7153 69° East 446 513 31,000  Level Atlanta Center
07:56PM 33.2817 -85.5744 70° East 446 513 31,000  Level Atlanta Center
07:57PM 33.3250 -85.4361 69° East 441 507 31,000  Level Atlanta Center
07:58PM 33.3683 -85.2950 70° East 441 507 31,000  Level Atlanta Center
07:59PM 33.4136 -85.1486 70° East 451 519 31,000  Level Atlanta Center
08:00PM 33.4522 -85.0222 70° East 451 519 31,000  Level Atlanta Center
08:01PM 33.4972 -84.8783 69° East 451 519 31,000  Level Atlanta Center
08:02PM 33.5397 -84.7342 70° East 457 526 31,000  Level Atlanta Center
08:03PM 33.5822 -84.5900 70° East 457 526 31,000  Level Atlanta Center
08:04PM 33.6308 -84.4281 70° East 462 532 31,000  Level Atlanta Center
08:05PM 33.6708 -84.2833 72° East 462 532 31,000  Level Atlanta Center
08:06PM 33.7086 -84.1461 72° East 472 543 31,000  Level Atlanta Center
08:07PM 33.7503 -83.9939 72° East 478 550 31,000  Level Atlanta Center
08:08PM 33.7942 -83.8439 71° East 478 550 31,000  Level Atlanta Center
08:09PM 33.8356 -83.6936 72° East 478 550 31,000  Level Atlanta Center
08:10PM 33.8789 -83.5408 71° East 478 550 31,000  Level Atlanta Center
08:11PM 33.9219 -83.3953 70° East 478 550 31,000  Level Atlanta Center
08:12PM 33.9608 -83.2397 73° East 471 542 31,000  Level Atlanta Center
08:13PM 34.0075 -83.0764 71° East 476 548 31,000  Level Atlanta Center
08:14PM 34.0481 -82.9206 73° East 476 548 31,000  Level Atlanta Center
08:15PM 34.0903 -82.7694 71° East 478 550 31,000 -540 Level Atlanta Center
08:16PM 34.1325 -82.6158 72° East 478 550 30,000 -1,020 Descending Atlanta Center
08:17PM 34.1683 -82.4672 74° East 464 534 29,000 -1,620 Descending Atlanta Center
08:18PM 34.2100 -82.3131 72° East 464 534 26,800 -2,460 Descending Atlanta Center
08:19PM 34.2517 -82.1639 71° East 464 534 24,100 -2,400 Descending Atlanta Center
08:20PM 34.3272 -82.0567 50° Northeast 431 496 22,000 -2,160 Descending Atlanta Center
08:21PM 34.4111 -81.9539 45° Northeast 425 489 19,800 -1,560 Descending Atlanta Center
08:22PM 34.4864 -81.8539 48° Northeast 412 474 18,900 -1,560 Descending Atlanta Center
08:23PM 34.5558 -81.7714 44° Northeast 411 473 17,100 -2,700 Descending Atlanta Center
08:24PM 34.6414 -81.6606 47° Northeast 389 448 13,600 -2,700 Descending Atlanta Center
08:25PM 34.7067 -81.5778 46° Northeast 381 438 11,200 -1,260 Descending Atlanta Center
08:26PM 34.7692 -81.4747 54° Northeast 292 336 11,000 -540 Descending Atlanta Center
08:27PM 34.7864 -81.4008 74° East 299 344 10,200 -1,320 Descending Atlanta Center
08:28PM 34.8117 -81.3092 71° East 289 333 8,600 -1,680 Descending Atlanta Center
08:28PM 34.8233 -81.2758 67° East 284 327 8,100 -1,500 Descending Atlanta Center
08:29PM 34.8453 -81.2244 62° Northeast 283 326 7,100 -1,260 Descending Atlanta Center
08:30PM 34.8789 -81.1447 63° Northeast 267 307 5,900 -1,080 Descending Atlanta Center
08:31PM 34.9228 -81.0672 55° Northeast 254 292 5,000 -540 Descending Atlanta Center
08:32PM 34.9672 -81.0100 47° Northeast 243 280 4,900 -480 Descending Atlanta Center
08:33PM 35.0228 -80.9725 29° Northeast 190 219 4,000 -900 Descending Atlanta Center
08:34PM 35.0703 -80.9553 17° North 147 169 3,000 -900 Descending Atlanta Center